Mallet, Brazil
Current Conditions -  °F | °C
As of 10:00 AM on Monday 20 Oct 2014 (Local Time) from SBBI Reporting Station
Broken Clouds Broken Clouds  
Wind Chill: 64°   Ceiling: 700
Heat Index: 64°   Visibility: 6mi
Dew Point: 59°   Wind: 5mph
Humidity: 83%   Direction: 110°ESE
Pressure: 30.12"   Gusts: NA
Location:  25.88°S, 50.82°W
Report Text: SBBI 201300Z 11004KT 9999 BKN007 BKN015 18/15 Q1020
Loading
Personal Weather Stations






























Interactive Weather Map
Tropical Storm Tracking
New forecast layout! Learn more

10-Day Weather Forecast

Advertisements
Track Severe Weather on mobile